createdAt,value
2018-02-09T00:01:46.333Z,44.80
2018-02-09T00:04:15.149Z,44.65
2018-02-09T00:06:44.746Z,48.53
2018-02-09T00:09:13.591Z,46.92
2018-02-09T00:11:42.382Z,49.70
2018-02-09T00:14:11.361Z,50.53
2018-02-09T00:16:40.233Z,47.50
2018-02-09T00:19:09.028Z,47.92
2018-02-09T00:21:37.878Z,51.37
2018-02-09T00:24:06.723Z,45.92
2018-02-09T00:26:35.501Z,48.60
2018-02-09T00:29:05.109Z,47.65
2018-02-09T00:31:34.035Z,48.42
2018-02-09T00:34:02.837Z,48.33
2018-02-09T00:36:31.702Z,49.80
2018-02-09T00:39:00.538Z,49.78
2018-02-09T00:41:30.150Z,44.97
2018-02-09T00:43:58.985Z,42.85
2018-02-09T00:46:27.798Z,41.70
2018-02-09T00:48:56.631Z,43.67
2018-02-09T00:51:25.462Z,44.17
2018-02-09T00:53:54.288Z,43.67
2018-02-09T00:56:23.859Z,42.55
2018-02-09T00:58:52.898Z,41.95
2018-02-09T01:01:21.723Z,45.40
2018-02-09T01:03:50.489Z,45.35
2018-02-09T01:06:19.306Z,52.17
2018-02-09T01:08:48.145Z,45.65
2018-02-09T01:11:16.940Z,44.97
2018-02-09T01:13:45.776Z,44.38
2018-02-09T01:16:14.622Z,43.40
2018-02-09T01:18:43.444Z,44.28
2018-02-09T01:21:12.370Z,42.00
2018-02-09T01:23:41.254Z,40.97
2018-02-09T01:26:10.074Z,42.67
2018-02-09T01:28:39.659Z,44.80
2018-02-09T01:31:08.492Z,44.08
2018-02-09T01:33:37.384Z,43.05
2018-02-09T01:36:06.264Z,43.08
2018-02-09T01:38:35.274Z,43.58
2018-02-09T01:41:04.117Z,44.03
2018-02-09T01:43:32.973Z,44.33
2018-02-09T01:46:01.818Z,47.25
2018-02-09T01:48:30.604Z,44.33
2018-02-09T01:50:59.429Z,44.80
2018-02-09T01:53:28.286Z,47.05
2018-02-09T01:55:57.090Z,45.12
2018-02-09T01:58:25.949Z,45.20
2018-02-09T02:00:55.531Z,46.25
2018-02-09T02:03:24.330Z,45.10
2018-02-09T02:05:53.164Z,48.80
2018-02-09T02:08:22.346Z,47.53
2018-02-09T02:10:51.164Z,49.00
2018-02-09T02:13:20.000Z,53.05
2018-02-09T02:15:49.606Z,53.40
2018-02-09T02:18:18.421Z,51.50
2018-02-09T02:20:47.244Z,55.60
2018-02-09T02:23:16.085Z,53.97
2018-02-09T02:25:45.678Z,52.67
2018-02-09T02:28:15.273Z,55.12
2018-02-09T02:30:44.102Z,51.30
2018-02-09T02:33:12.889Z,54.80
2018-02-09T02:35:42.478Z,50.97
2018-02-09T02:38:12.103Z,50.05
2018-02-09T02:40:40.941Z,49.25
2018-02-09T02:43:09.854Z,47.60
2018-02-09T02:45:38.693Z,52.55
2018-02-09T02:48:07.549Z,54.40
2018-02-09T02:50:37.322Z,52.00
2018-02-09T02:53:06.150Z,55.00
2018-02-09T02:55:35.749Z,51.67
2018-02-09T02:58:05.358Z,52.03
2018-02-09T03:00:34.983Z,51.25
2018-02-09T03:03:03.813Z,53.55
2018-02-09T03:05:32.627Z,49.33
2018-02-09T03:08:01.455Z,50.10
2018-02-09T03:10:30.199Z,51.50
2018-02-09T03:12:59.040Z,52.80
2018-02-09T03:15:27.875Z,53.78
2018-02-09T03:18:00.758Z,53.58
2018-02-09T03:20:29.611Z,52.38
2018-02-09T03:22:58.428Z,51.20
2018-02-09T03:25:27.255Z,53.87
2018-02-09T03:27:56.845Z,52.38
2018-02-09T03:30:26.478Z,49.88
2018-02-09T03:32:55.330Z,47.60
2018-02-09T03:35:24.143Z,50.17
2018-02-09T03:37:53.689Z,52.30
2018-02-09T03:40:22.518Z,52.38
2018-02-09T03:42:51.356Z,52.33
2018-02-09T03:45:20.138Z,53.85
2018-02-09T03:47:48.930Z,51.60
2018-02-09T03:50:17.737Z,53.63
2018-02-09T03:52:46.513Z,52.03
2018-02-09T03:55:15.326Z,50.67
2018-02-09T03:57:44.162Z,53.13
2018-02-09T04:00:12.953Z,52.83
2018-02-09T04:02:42.542Z,50.47
2018-02-09T04:05:11.362Z,51.47
2018-02-09T04:07:40.199Z,52.05
2018-02-09T04:10:09.036Z,52.72
2018-02-09T04:12:37.878Z,48.83
2018-02-09T04:15:06.723Z,50.05
2018-02-09T04:17:35.548Z,51.72
2018-02-09T04:20:04.088Z,50.25
2018-02-09T04:22:32.900Z,50.42
2018-02-09T04:25:01.722Z,52.47
2018-02-09T04:27:30.560Z,50.63
2018-02-09T04:29:59.390Z,48.85
2018-02-09T04:32:28.712Z,50.63
2018-02-09T04:34:57.556Z,49.30
2018-02-09T04:37:26.430Z,50.08
2018-02-09T04:39:55.265Z,53.38
2018-02-09T04:42:24.126Z,53.05
2018-02-09T04:44:52.928Z,51.40
2018-02-09T04:47:21.749Z,48.28
2018-02-09T04:49:50.595Z,51.85
2018-02-09T04:52:19.423Z,52.03
2018-02-09T04:54:48.234Z,52.78
2018-02-09T04:57:17.119Z,52.92
2018-02-09T04:59:46.700Z,55.10
2018-02-09T05:02:15.555Z,53.08
2018-02-09T05:04:44.358Z,53.03
2018-02-09T05:07:13.134Z,52.08
2018-02-09T05:09:41.982Z,55.05
2018-02-09T05:12:11.578Z,50.67
2018-02-09T05:14:41.130Z,50.55
2018-02-09T05:17:09.956Z,51.50
2018-02-09T05:19:38.796Z,52.40
2018-02-09T05:22:07.593Z,52.47
2018-02-09T05:24:36.424Z,51.88
2018-02-09T05:27:05.265Z,50.65
2018-02-09T05:29:34.103Z,51.53
2018-02-09T05:32:02.950Z,49.60
2018-02-09T05:34:32.582Z,49.85
2018-02-09T05:37:01.425Z,52.72
2018-02-09T05:39:30.257Z,48.65
2018-02-09T05:41:59.079Z,49.40
2018-02-09T05:44:28.634Z,49.03
2018-02-09T05:46:57.474Z,48.33
2018-02-09T05:49:26.322Z,48.28
2018-02-09T05:51:55.173Z,48.58
2018-02-09T05:54:24.778Z,51.37
2018-02-09T05:56:54.362Z,51.58
2018-02-09T05:59:23.177Z,48.53
2018-02-09T06:01:52.028Z,50.03
2018-02-09T06:04:21.011Z,50.63
2018-02-09T06:06:49.817Z,50.67
2018-02-09T06:09:18.647Z,49.33
2018-02-09T06:11:47.572Z,50.40
2018-02-09T06:14:16.378Z,51.10
2018-02-09T06:16:45.212Z,51.03
2018-02-09T06:19:14.044Z,52.62
2018-02-09T06:21:42.898Z,50.38
2018-02-09T06:24:11.711Z,53.38
2018-02-09T06:26:40.619Z,53.78
2018-02-09T06:29:09.390Z,54.00
2018-02-09T06:31:38.237Z,50.55
2018-02-09T06:34:07.834Z,51.13
2018-02-09T06:36:37.414Z,48.85
2018-02-09T06:39:05.956Z,52.80
2018-02-09T06:41:34.798Z,51.85
2018-02-09T06:44:03.441Z,50.30
2018-02-09T06:46:32.275Z,53.00
2018-02-09T06:49:01.118Z,51.97
2018-02-09T06:51:29.893Z,49.95
2018-02-09T06:53:58.717Z,52.08
2018-02-09T06:56:27.530Z,54.30
2018-02-09T06:58:56.369Z,53.92
2018-02-09T07:01:25.230Z,52.50
2018-02-09T07:03:54.828Z,53.05
2018-02-09T07:06:23.599Z,53.92
2018-02-09T07:08:52.429Z,51.67
2018-02-09T07:11:21.326Z,53.97
2018-02-09T07:13:50.111Z,52.92
2018-02-09T07:16:18.894Z,53.03
2018-02-09T07:18:47.720Z,54.35
2018-02-09T07:21:16.495Z,51.00
2018-02-09T07:23:45.350Z,52.38
2018-02-09T07:26:14.174Z,54.38
2018-02-09T07:28:43.004Z,52.35
2018-02-09T07:31:11.668Z,50.47
2018-02-09T07:33:40.497Z,50.95
2018-02-09T07:36:10.039Z,50.58
2018-02-09T07:38:38.861Z,52.15
2018-02-09T07:41:07.690Z,53.70
2018-02-09T07:43:36.534Z,50.35
2018-02-09T07:46:05.350Z,51.17
2018-02-09T07:48:34.936Z,53.08
2018-02-09T07:51:03.749Z,52.67
2018-02-09T07:53:32.573Z,53.17
2018-02-09T07:56:01.428Z,52.00
2018-02-09T07:58:30.978Z,51.75
2018-02-09T08:00:59.872Z,51.75
2018-02-09T08:03:28.727Z,54.35
2018-02-09T08:05:57.631Z,54.25
2018-02-09T08:08:26.504Z,57.35
2018-02-09T08:10:55.397Z,54.90
2018-02-09T08:13:25.082Z,56.58
2018-02-09T08:15:54.681Z,52.83
2018-02-09T08:18:23.485Z,53.60
2018-02-09T08:20:52.277Z,55.12
2018-02-09T08:23:21.927Z,52.17
2018-02-09T08:25:50.757Z,53.83
2018-02-09T08:28:19.587Z,51.42
2018-02-09T08:30:48.439Z,51.53
2018-02-09T08:33:17.283Z,52.10
2018-02-09T08:35:46.085Z,49.38
2018-02-09T08:38:14.925Z,49.88
2018-02-09T08:40:44.532Z,49.15
2018-02-09T08:43:13.322Z,51.85
2018-02-09T08:45:42.905Z,50.20
2018-02-09T08:48:11.762Z,52.50
2018-02-09T08:50:40.555Z,52.60
2018-02-09T08:53:09.395Z,51.95
2018-02-09T08:55:39.014Z,49.85
2018-02-09T08:58:08.584Z,50.58
2018-02-09T09:00:37.478Z,55.03
2018-02-09T09:03:06.308Z,55.28
2018-02-09T09:05:35.115Z,55.60
2018-02-09T09:08:03.956Z,57.05
2018-02-09T09:10:33.517Z,58.72
2018-02-09T09:13:02.348Z,58.90
2018-02-09T09:15:31.178Z,51.88
2018-02-09T09:17:59.974Z,53.63
2018-02-09T09:20:28.795Z,53.85
2018-02-09T09:22:57.598Z,52.55
2018-02-09T09:25:26.421Z,54.20
2018-02-09T09:27:55.262Z,52.50
2018-02-09T09:30:24.070Z,53.90
2018-02-09T09:32:52.913Z,56.42
2018-02-09T09:35:21.714Z,53.17
2018-02-09T09:37:50.551Z,52.85
2018-02-09T09:40:20.114Z,53.17
2018-02-09T09:42:49.001Z,54.28
2018-02-09T09:45:17.829Z,51.83
2018-02-09T09:47:47.450Z,50.55
2018-02-09T09:50:16.304Z,52.55
2018-02-09T09:52:45.111Z,51.40
2018-02-09T09:55:14.681Z,53.38
2018-02-09T09:57:43.255Z,58.20
2018-02-09T10:00:11.941Z,53.33
2018-02-09T10:02:41.063Z,50.15
2018-02-09T10:05:09.637Z,52.07
2018-02-09T10:07:38.457Z,52.30
2018-02-09T10:10:07.232Z,52.28
2018-02-09T10:12:36.037Z,53.10
2018-02-09T10:15:05.657Z,53.05
2018-02-09T10:17:35.199Z,50.63
2018-02-09T10:20:04.088Z,51.70
2018-02-09T10:22:32.964Z,50.70
2018-02-09T10:25:02.526Z,53.90
2018-02-09T10:27:31.362Z,54.72
2018-02-09T10:30:00.194Z,54.67
2018-02-09T10:32:28.722Z,54.83
2018-02-09T10:34:57.643Z,56.30
2018-02-09T10:37:26.556Z,55.15
2018-02-09T10:39:55.685Z,60.13
2018-02-09T10:42:24.242Z,55.73
2018-02-09T10:44:52.876Z,57.00
2018-02-09T10:47:22.274Z,51.87
2018-02-09T10:49:50.885Z,57.67
2018-02-09T10:52:19.725Z,55.53
2018-02-09T10:54:48.449Z,54.23
2018-02-09T10:57:16.992Z,57.30
2018-02-09T10:59:45.547Z,55.50
2018-02-09T11:02:15.127Z,56.80
2018-02-09T11:04:43.708Z,53.40
2018-02-09T11:07:12.310Z,53.70
2018-02-09T11:09:47.769Z,57.70
2018-02-09T11:12:16.844Z,53.87
2018-02-09T11:14:45.778Z,54.53
2018-02-09T11:17:14.399Z,54.43
2018-02-09T11:19:42.951Z,54.00
2018-02-09T11:22:12.278Z,54.27
2018-02-09T11:24:40.845Z,55.03
2018-02-09T11:27:10.150Z,53.77
2018-02-09T11:29:38.666Z,55.63
2018-02-09T11:32:07.273Z,53.40
2018-02-09T11:34:35.885Z,52.70
2018-02-09T11:37:05.290Z,56.17
2018-02-09T11:39:33.853Z,55.13
2018-02-09T11:42:02.516Z,52.47
2018-02-09T11:44:31.101Z,52.70
2018-02-09T11:46:59.657Z,55.13
2018-02-09T11:49:28.211Z,54.30
2018-02-09T11:51:56.733Z,50.73
2018-02-09T11:54:25.288Z,52.80
2018-02-09T11:56:53.875Z,56.50
2018-02-09T11:59:22.448Z,54.73
2018-02-09T12:01:51.014Z,57.60
2018-02-09T12:04:19.556Z,55.53
2018-02-09T12:06:48.062Z,55.00
2018-02-09T12:09:16.614Z,54.23
2018-02-09T12:11:45.236Z,52.60
2018-02-09T12:14:14.003Z,53.67
2018-02-09T12:16:42.608Z,52.93
2018-02-09T12:19:11.963Z,55.03
2018-02-09T12:21:40.462Z,54.90
2018-02-09T12:24:09.022Z,57.63
2018-02-09T12:26:37.581Z,57.10
2018-02-09T12:29:06.183Z,65.47
2018-02-09T12:31:34.759Z,61.47
2018-02-09T12:34:03.301Z,66.30
2018-02-09T12:36:31.825Z,71.07
2018-02-09T12:39:00.370Z,61.27
2018-02-09T12:41:29.742Z,57.43
2018-02-09T12:43:58.288Z,60.53
2018-02-09T12:46:26.850Z,62.10
2018-02-09T12:48:56.178Z,57.43
2018-02-09T12:51:24.753Z,57.93
2018-02-09T12:53:53.301Z,55.43
2018-02-09T12:56:21.849Z,57.67
2018-02-09T12:58:50.359Z,54.90
2018-02-09T13:01:18.919Z,56.43
2018-02-09T13:03:47.487Z,55.97
2018-02-09T13:06:16.107Z,54.87
2018-02-09T13:08:44.671Z,60.00
2018-02-09T13:11:13.210Z,58.80
2018-02-09T13:13:41.698Z,57.50
2018-02-09T13:16:10.234Z,57.93
2018-02-09T13:18:48.831Z,58.07
2018-02-09T13:21:17.413Z,55.27
2018-02-09T13:23:57.133Z,55.47
2018-02-09T13:26:25.721Z,57.03
2018-02-09T13:29:04.186Z,54.80
2018-02-09T13:31:33.516Z,55.30
2018-02-09T13:34:02.046Z,56.70
2018-02-09T13:39:49.946Z,56.30
2018-02-09T13:42:18.450Z,53.47
2018-02-09T13:44:46.958Z,54.67
2018-02-09T13:47:15.437Z,53.33
2018-02-09T13:49:43.925Z,55.07
2018-02-09T13:52:12.426Z,53.70
2018-02-09T13:54:41.735Z,51.67
2018-02-09T13:57:11.091Z,53.43
2018-02-09T13:59:39.686Z,61.63
2018-02-09T14:02:08.226Z,57.33
2018-02-09T14:04:36.881Z,53.67
2018-02-09T14:07:05.441Z,55.83
2018-02-09T14:09:33.950Z,54.27
2018-02-09T14:12:02.549Z,53.33
2018-02-09T14:14:31.325Z,51.60
2018-02-09T14:16:59.890Z,53.63
2018-02-09T14:19:28.451Z,56.90
2018-02-09T14:21:57.039Z,56.30
2018-02-09T14:24:25.534Z,56.53
2018-02-09T14:26:54.085Z,56.73
2018-02-09T14:29:22.633Z,55.87
2018-02-09T14:31:52.162Z,56.80
2018-02-09T14:34:20.748Z,59.60
2018-02-09T14:36:49.349Z,65.00
2018-02-09T14:39:17.863Z,62.63
2018-02-09T14:41:46.426Z,59.37
2018-02-09T14:44:14.973Z,58.43
2018-02-09T14:46:43.521Z,56.83
2018-02-09T14:49:12.851Z,56.60
2018-02-09T14:51:41.415Z,56.83
2018-02-09T14:54:10.080Z,56.33
2018-02-09T14:56:39.418Z,55.70
2018-02-09T14:59:07.953Z,61.47
2018-02-09T15:01:36.534Z,55.90
2018-02-09T15:04:05.098Z,64.17
2018-02-09T15:06:33.650Z,66.23
2018-02-09T15:09:02.237Z,79.13
2018-02-09T15:11:30.779Z,68.07
2018-02-09T15:13:59.022Z,61.83
2018-02-09T15:16:27.538Z,57.03
2018-02-09T15:18:56.838Z,58.93
2018-02-09T15:21:25.374Z,57.00
2018-02-09T15:23:53.889Z,57.43
2018-02-09T15:26:22.453Z,60.73
2018-02-09T15:28:51.108Z,60.70
2018-02-09T15:31:19.626Z,59.57
2018-02-09T15:33:48.176Z,55.53
2018-02-09T15:36:16.788Z,54.33
2018-02-09T15:38:45.360Z,54.90
2018-02-09T15:41:13.917Z,57.90
2018-02-09T15:43:42.540Z,58.50
2018-02-09T15:46:11.903Z,107.20
2018-02-09T15:48:40.427Z,62.03
2018-02-09T15:51:09.006Z,55.47
2018-02-09T15:53:37.583Z,33.13
2018-02-09T15:56:06.131Z,35.57
2018-02-09T15:58:34.883Z,34.70
2018-02-09T16:01:03.474Z,35.43
2018-02-09T16:03:32.773Z,34.63
2018-02-09T16:06:02.154Z,34.13
2018-02-09T16:08:30.702Z,32.63
2018-02-09T16:10:59.213Z,31.73
2018-02-09T16:13:27.767Z,32.87
2018-02-09T16:15:56.332Z,33.13
2018-02-09T16:18:24.602Z,35.07
2018-02-09T16:20:53.170Z,34.47
2018-02-09T16:23:21.657Z,34.27
2018-02-09T16:25:50.189Z,34.57
2018-02-09T16:28:18.743Z,32.40
2018-02-09T16:30:47.330Z,32.20
2018-02-09T16:33:15.909Z,31.80
2018-02-09T16:35:44.490Z,58.20
2018-02-09T16:38:13.164Z,31.00
2018-02-09T16:40:41.689Z,29.83
2018-02-09T16:43:10.251Z,32.97
2018-02-09T16:45:38.875Z,33.80
2018-02-09T16:48:07.447Z,30.50
2018-02-09T16:50:36.024Z,32.00
2018-02-09T16:53:06.556Z,30.63
2018-02-09T16:55:35.106Z,30.33
2018-02-09T16:58:03.646Z,30.13
2018-02-09T17:00:32.196Z,31.57
2018-02-09T17:03:00.738Z,31.93
2018-02-09T17:05:29.295Z,33.60
2018-02-09T17:07:58.621Z,31.43
2018-02-09T17:10:27.174Z,31.10
2018-02-09T17:12:55.686Z,29.97
2018-02-09T17:15:24.236Z,31.10
2018-02-09T17:17:52.814Z,35.37
2018-02-09T17:20:21.355Z,30.13
2018-02-09T17:22:49.893Z,31.43
2018-02-09T17:25:19.230Z,30.33
2018-02-09T17:27:47.780Z,33.30
2018-02-09T17:30:17.090Z,33.53
2018-02-09T17:32:45.618Z,33.87
2018-02-09T17:35:14.174Z,32.20
2018-02-09T17:37:42.689Z,30.13
2018-02-09T17:40:12.402Z,38.90
2018-02-09T17:42:40.949Z,43.30
2018-02-09T17:45:09.497Z,42.17
2018-02-09T17:47:38.045Z,42.27
2018-02-09T17:50:06.563Z,40.93
2018-02-09T17:52:35.917Z,40.40
2018-02-09T17:55:04.458Z,41.13
2018-02-09T17:57:32.997Z,46.03
2018-02-09T18:00:01.590Z,42.77
2018-02-09T18:02:30.301Z,42.87
2018-02-09T18:04:59.602Z,42.17
2018-02-09T18:07:28.941Z,41.50
2018-02-09T18:09:57.486Z,41.50
2018-02-09T18:12:27.019Z,47.37
2018-02-09T18:14:55.566Z,47.57
2018-02-09T18:17:25.499Z,45.10
2018-02-09T18:19:54.126Z,43.33
2018-02-09T18:22:22.682Z,41.33
2018-02-09T18:24:51.228Z,46.13
2018-02-09T18:27:21.158Z,43.03
2018-02-09T18:29:49.718Z,44.10
2018-02-09T18:32:19.062Z,43.83
2018-02-09T18:34:47.598Z,43.47
2018-02-09T18:37:16.398Z,41.10
2018-02-09T18:39:44.910Z,38.67
2018-02-09T18:42:13.437Z,38.43
2018-02-09T18:44:42.006Z,38.47
2018-02-09T18:47:10.485Z,38.03
2018-02-09T18:49:39.000Z,38.90
2018-02-09T18:52:07.498Z,38.90
2018-02-09T18:54:36.769Z,38.23
2018-02-09T18:57:05.351Z,39.90
2018-02-09T18:59:34.614Z,40.23
2018-02-09T19:02:03.180Z,38.37
2018-02-09T19:04:31.784Z,39.43
2018-02-09T19:07:00.326Z,37.47
2018-02-09T19:09:29.628Z,38.17
2018-02-09T19:11:58.190Z,35.53
2018-02-09T19:14:27.553Z,38.37
2018-02-09T19:16:57.081Z,43.87
2018-02-09T19:19:25.715Z,43.20
2018-02-09T19:21:54.269Z,59.30
2018-02-09T19:24:23.578Z,47.10
2018-02-09T19:26:52.238Z,48.13
2018-02-09T19:29:20.787Z,43.67
2018-02-09T19:31:49.422Z,42.80
2018-02-09T19:34:18.077Z,44.70
2018-02-09T19:36:46.715Z,45.77
2018-02-09T19:39:15.463Z,44.43
2018-02-09T19:41:43.973Z,43.87
2018-02-09T19:44:12.646Z,42.30
2018-02-09T19:46:41.311Z,43.50
2018-02-09T19:49:13.914Z,42.57
2018-02-09T19:51:43.314Z,82.23
2018-02-09T19:54:12.672Z,54.23
2018-02-09T19:56:41.317Z,46.97
2018-02-09T19:59:10.646Z,43.50
2018-02-09T20:01:39.289Z,41.73
2018-02-09T20:04:07.879Z,44.60
2018-02-09T20:06:36.558Z,42.57
2018-02-09T20:09:05.695Z,42.40
2018-02-09T20:11:34.235Z,39.30
2018-02-09T20:14:02.738Z,43.10
2018-02-09T20:16:31.227Z,46.93
2018-02-09T20:18:59.737Z,45.83
2018-02-09T20:21:28.307Z,42.37
2018-02-09T20:23:57.041Z,39.77
2018-02-09T20:26:25.551Z,38.33
2018-02-09T20:28:54.821Z,39.87
2018-02-09T20:31:23.377Z,38.57
2018-02-09T20:33:52.781Z,39.60
2018-02-09T20:36:21.281Z,40.87
2018-02-09T20:38:49.752Z,41.00
2018-02-09T20:41:18.487Z,40.90
2018-02-09T20:43:46.986Z,40.93
2018-02-09T20:46:15.460Z,40.60
2018-02-09T20:48:43.952Z,39.57
2018-02-09T20:51:12.408Z,38.23
2018-02-09T20:53:40.929Z,38.97
2018-02-09T20:56:09.121Z,42.30
2018-02-09T20:58:37.737Z,43.83
2018-02-09T21:01:06.999Z,48.77
2018-02-09T21:03:35.486Z,43.20
2018-02-09T21:06:03.997Z,41.10
2018-02-09T21:08:33.226Z,38.83
2018-02-09T21:11:01.729Z,39.37
2018-02-09T21:13:30.221Z,38.80
2018-02-09T21:15:58.691Z,35.80
2018-02-09T21:18:27.197Z,40.50
2018-02-09T21:20:55.653Z,38.67
2018-02-09T21:23:24.325Z,37.80
2018-02-09T21:25:52.805Z,36.33
2018-02-09T21:28:21.496Z,37.03
2018-02-09T21:30:49.966Z,39.00
2018-02-09T21:33:19.208Z,34.47
2018-02-09T21:35:47.677Z,36.67
2018-02-09T21:38:16.164Z,36.80
2018-02-09T21:40:44.635Z,35.80
2018-02-09T21:43:12.849Z,36.87
2018-02-09T21:45:41.365Z,35.83
2018-02-09T21:48:10.037Z,37.37
2018-02-09T21:50:38.537Z,36.43
2018-02-09T21:53:07.049Z,36.43
2018-02-09T21:55:35.512Z,34.53
2018-02-09T21:58:03.993Z,35.00
2018-02-09T22:00:32.467Z,35.77
2018-02-09T22:03:00.970Z,33.70
2018-02-09T22:05:29.498Z,34.50
2018-02-09T22:07:58.717Z,33.07
2018-02-09T22:10:27.226Z,34.43
2018-02-09T22:12:55.687Z,35.87
2018-02-09T22:15:24.181Z,36.33
2018-02-09T22:17:52.641Z,35.87
2018-02-09T22:20:21.134Z,39.13
2018-02-09T22:22:49.629Z,37.70
2018-02-09T22:25:18.084Z,35.90
2018-02-09T22:27:46.569Z,38.50
2018-02-09T22:30:15.040Z,36.97
2018-02-09T22:32:43.551Z,38.03
2018-02-09T22:35:12.224Z,38.23
2018-02-09T22:37:40.696Z,38.03
2018-02-09T22:40:09.390Z,38.47
2018-02-09T22:42:37.873Z,39.63
2018-02-09T22:45:06.385Z,40.67
2018-02-09T22:47:35.869Z,38.40
2018-02-09T22:50:04.335Z,39.63
2018-02-09T22:52:32.837Z,39.33
2018-02-09T22:55:01.386Z,41.23
2018-02-09T22:57:29.905Z,39.17
2018-02-09T22:59:58.414Z,37.87
2018-02-09T23:02:26.877Z,39.53
2018-02-09T23:04:55.479Z,47.20
2018-02-09T23:07:23.934Z,41.97
2018-02-09T23:09:52.423Z,39.00
2018-02-09T23:12:20.913Z,38.83
2018-02-09T23:14:49.414Z,40.27
2018-02-09T23:17:18.666Z,41.23
2018-02-09T23:19:47.126Z,40.53
2018-02-09T23:22:15.636Z,41.17
2018-02-09T23:24:44.124Z,42.13
2018-02-09T23:27:12.583Z,42.60
2018-02-09T23:29:41.073Z,41.33
2018-02-09T23:32:09.529Z,44.87
2018-02-09T23:34:38.023Z,39.27
2018-02-09T23:37:06.509Z,43.03
2018-02-09T23:39:34.970Z,43.33
2018-02-09T23:42:03.453Z,39.33
2018-02-09T23:44:32.681Z,40.83
2018-02-09T23:47:01.174Z,38.27
2018-02-09T23:49:29.663Z,39.83
2018-02-09T23:51:58.122Z,39.07
2018-02-09T23:54:26.317Z,38.30
2018-02-09T23:56:54.781Z,38.57
2018-02-09T23:59:23.295Z,38.87
